sensor_id;sensor_type;location;lat;lon;timestamp;pressure;altitude;pressure_sealevel;temperature;humidity
26563;BME280;14217;50.986;5.826;2023-01-27T00:02:06;101669.16;;;16.12;41.06
26563;BME280;14217;50.986;5.826;2023-01-27T00:07:08;101670.09;;;16.08;41.18
26563;BME280;14217;50.986;5.826;2023-01-27T00:12:17;101667.44;;;16.10;40.98
26563;BME280;14217;50.986;5.826;2023-01-27T00:17:39;101667.53;;;16.07;41.02
26563;BME280;14217;50.986;5.826;2023-01-27T00:22:41;101671.84;;;16.11;40.93
26563;BME280;14217;50.986;5.826;2023-01-27T00:28:01;101663.97;;;16.08;41.25
26563;BME280;14217;50.986;5.826;2023-01-27T00:33:07;101666.56;;;16.09;41.21
26563;BME280;14217;50.986;5.826;2023-01-27T00:38:29;101670.94;;;16.12;40.79
26563;BME280;14217;50.986;5.826;2023-01-27T00:43:32;101674.63;;;16.04;41.17
26563;BME280;14217;50.986;5.826;2023-01-27T00:48:34;101677.19;;;16.06;41.18
26563;BME280;14217;50.986;5.826;2023-01-27T00:53:36;101668.31;;;16.10;41.10
26563;BME280;14217;50.986;5.826;2023-01-27T00:58:38;101672.72;;;16.10;41.00
26563;BME280;14217;50.986;5.826;2023-01-27T01:03:41;101673.59;;;16.10;41.09
26563;BME280;14217;50.986;5.826;2023-01-27T01:08:43;101670.09;;;16.10;41.01
26563;BME280;14217;50.986;5.826;2023-01-27T01:13:46;101679.91;;;16.04;40.97
26563;BME280;14217;50.986;5.826;2023-01-27T01:18:48;101687.75;;;16.08;40.91
26563;BME280;14217;50.986;5.826;2023-01-27T01:23:50;101695.69;;;16.08;40.83
26563;BME280;14217;50.986;5.826;2023-01-27T01:28:52;101693.03;;;16.08;40.97
26563;BME280;14217;50.986;5.826;2023-01-27T01:33:54;101699.25;;;16.07;40.85
26563;BME280;14217;50.986;5.826;2023-01-27T01:38:56;101700.94;;;16.11;40.84
26563;BME280;14217;50.986;5.826;2023-01-27T01:44:16;101703.63;;;16.08;41.11
26563;BME280;14217;50.986;5.826;2023-01-27T01:49:22;101700.00;;;16.13;40.59
26563;BME280;14217;50.986;5.826;2023-01-27T01:54:51;101705.41;;;16.07;41.04
26563;BME280;14217;50.986;5.826;2023-01-27T02:00:03;101707.94;;;16.12;40.63
26563;BME280;14217;50.986;5.826;2023-01-27T02:05:10;101706.00;;;16.20;40.61
26563;BME280;14217;50.986;5.826;2023-01-27T02:10:15;101713.13;;;16.16;40.56
26563;BME280;14217;50.986;5.826;2023-01-27T02:15:18;101712.25;;;16.16;40.39
26563;BME280;14217;50.986;5.826;2023-01-27T02:20:42;101713.31;;;16.09;40.91
26563;BME280;14217;50.986;5.826;2023-01-27T02:25:56;101714.94;;;16.13;40.79
26563;BME280;14217;50.986;5.826;2023-01-27T02:30:59;101707.09;;;16.10;40.92
26563;BME280;14217;50.986;5.826;2023-01-27T02:36:12;101705.41;;;16.07;41.03
26563;BME280;14217;50.986;5.826;2023-01-27T02:41:28;101709.75;;;16.10;40.67
26563;BME280;14217;50.986;5.826;2023-01-27T02:46:32;101712.25;;;16.16;40.46
26563;BME280;14217;50.986;5.826;2023-01-27T02:51:34;101706.25;;;16.08;40.94
26563;BME280;14217;50.986;5.826;2023-01-27T02:56:36;101702.84;;;16.02;40.62
26563;BME280;14217;50.986;5.826;2023-01-27T03:01:38;101710.66;;;16.09;40.79
26563;BME280;14217;50.986;5.826;2023-01-27T03:06:40;101709.81;;;16.07;40.85
26563;BME280;14217;50.986;5.826;2023-01-27T03:11:42;101712.47;;;16.07;40.59
26563;BME280;14217;50.986;5.826;2023-01-27T03:17:03;101715.09;;;16.07;40.61
26563;BME280;14217;50.986;5.826;2023-01-27T03:22:23;101718.50;;;16.12;40.93
26563;BME280;14217;50.986;5.826;2023-01-27T03:27:26;101719.34;;;16.14;40.70
26563;BME280;14217;50.986;5.826;2023-01-27T03:32:30;101717.56;;;16.14;40.66
26563;BME280;14217;50.986;5.826;2023-01-27T03:37:32;101717.47;;;16.19;40.60
26563;BME280;14217;50.986;5.826;2023-01-27T03:42:52;101720.13;;;16.19;40.59
26563;BME280;14217;50.986;5.826;2023-01-27T03:48:13;101733.41;;;16.16;40.67
26563;BME280;14217;50.986;5.826;2023-01-27T03:53:19;101726.34;;;16.16;40.41
26563;BME280;14217;50.986;5.826;2023-01-27T03:58:27;101733.44;;;16.14;40.44
26563;BME280;14217;50.986;5.826;2023-01-27T04:03:31;101737.75;;;16.20;40.59
26563;BME280;14217;50.986;5.826;2023-01-27T04:08:53;101752.75;;;16.19;40.47
26563;BME280;14217;50.986;5.826;2023-01-27T04:13:55;101758.19;;;16.12;40.23
26563;BME280;14217;50.986;5.826;2023-01-27T04:19:00;101761.69;;;16.12;40.32
26563;BME280;14217;50.986;5.826;2023-01-27T04:24:02;101752.88;;;16.12;40.35
26563;BME280;14217;50.986;5.826;2023-01-27T04:29:04;101765.97;;;16.19;40.39
26563;BME280;14217;50.986;5.826;2023-01-27T04:34:09;101770.47;;;16.14;40.49
26563;BME280;14217;50.986;5.826;2023-01-27T04:39:11;101771.31;;;16.15;40.49
26563;BME280;14217;50.986;5.826;2023-01-27T04:44:13;101775.75;;;16.13;40.83
26563;BME280;14217;50.986;5.826;2023-01-27T04:49:16;101777.63;;;16.09;40.82
26563;BME280;14217;50.986;5.826;2023-01-27T04:54:19;101782.72;;;16.18;41.38
26563;BME280;14217;50.986;5.826;2023-01-27T04:59:21;101793.38;;;16.14;41.93
26563;BME280;14217;50.986;5.826;2023-01-27T05:04:23;101793.31;;;16.17;41.64
26563;BME280;14217;50.986;5.826;2023-01-27T05:09:27;101802.91;;;16.22;40.96
26563;BME280;14217;50.986;5.826;2023-01-27T05:14:29;101803.81;;;16.21;40.86
26563;BME280;14217;50.986;5.826;2023-01-27T05:19:31;101811.66;;;16.26;41.21
26563;BME280;14217;50.986;5.826;2023-01-27T05:24:33;101820.66;;;16.17;41.45
26563;BME280;14217;50.986;5.826;2023-01-27T05:29:35;101817.91;;;16.23;41.20
26563;BME280;14217;50.986;5.826;2023-01-27T05:34:38;101821.41;;;16.24;40.74
26563;BME280;14217;50.986;5.826;2023-01-27T05:39:40;101816.13;;;16.22;40.85
26563;BME280;14217;50.986;5.826;2023-01-27T05:44:42;101816.03;;;16.27;40.63
26563;BME280;14217;50.986;5.826;2023-01-27T05:49:44;101825.03;;;16.18;40.73
26563;BME280;14217;50.986;5.826;2023-01-27T05:54:46;101816.84;;;16.32;40.46
26563;BME280;14217;50.986;5.826;2023-01-27T05:59:48;101823.09;;;16.26;40.25
26563;BME280;14217;50.986;5.826;2023-01-27T06:04:50;101817.94;;;16.19;40.53
26563;BME280;14217;50.986;5.826;2023-01-27T06:09:52;101822.56;;;16.09;40.40
26563;BME280;14217;50.986;5.826;2023-01-27T06:14:54;101820.78;;;16.10;40.77
26563;BME280;14217;50.986;5.826;2023-01-27T06:19:59;101824.34;;;16.09;40.62
26563;BME280;14217;50.986;5.826;2023-01-27T06:25:00;101836.56;;;16.13;40.41
26563;BME280;14217;50.986;5.826;2023-01-27T06:30:03;101834.84;;;16.12;40.54
26563;BME280;14217;50.986;5.826;2023-01-27T06:35:05;101836.53;;;16.16;40.19
26563;BME280;14217;50.986;5.826;2023-01-27T06:40:08;101839.19;;;16.16;40.31
26563;BME280;14217;50.986;5.826;2023-01-27T06:45:10;101841.84;;;16.14;40.48
26563;BME280;14217;50.986;5.826;2023-01-27T06:50:13;101837.28;;;16.22;40.41
26563;BME280;14217;50.986;5.826;2023-01-27T06:55:16;101848.84;;;16.17;40.26
26563;BME280;14217;50.986;5.826;2023-01-27T07:00:18;101861.28;;;16.12;40.31
26563;BME280;14217;50.986;5.826;2023-01-27T07:05:20;101862.97;;;16.16;40.34
26563;BME280;14217;50.986;5.826;2023-01-27T07:10:22;101866.44;;;16.19;40.03
26563;BME280;14217;50.986;5.826;2023-01-27T07:15:24;101866.47;;;16.18;40.09
26563;BME280;14217;50.986;5.826;2023-01-27T07:20:26;101863.72;;;16.24;40.85
26563;BME280;14217;50.986;5.826;2023-01-27T07:25:30;101867.31;;;16.20;40.88
26563;BME280;14217;50.986;5.826;2023-01-27T07:30:33;101870.94;;;16.14;40.83
26563;BME280;14217;50.986;5.826;2023-01-27T07:35:36;101871.03;;;16.08;41.04
26563;BME280;14217;50.986;5.826;2023-01-27T07:40:39;101878.88;;;16.13;41.00
26563;BME280;14217;50.986;5.826;2023-01-27T07:45:41;101876.03;;;16.25;41.44
26563;BME280;14217;50.986;5.826;2023-01-27T07:50:43;101879.69;;;16.18;41.37
26563;BME280;14217;50.986;5.826;2023-01-27T07:55:45;101882.34;;;16.16;41.28
26563;BME280;14217;50.986;5.826;2023-01-27T08:00:47;101886.78;;;16.14;41.49
26563;BME280;14217;50.986;5.826;2023-01-27T08:05:49;101893.88;;;16.14;41.17
26563;BME280;14217;50.986;5.826;2023-01-27T08:10:51;101889.47;;;16.13;41.13
26563;BME280;14217;50.986;5.826;2023-01-27T08:15:56;101891.28;;;16.11;41.05
26563;BME280;14217;50.986;5.826;2023-01-27T08:21:00;101892.94;;;16.15;41.00
26563;BME280;14217;50.986;5.826;2023-01-27T08:26:04;101888.56;;;16.14;40.91
26563;BME280;14217;50.986;5.826;2023-01-27T08:31:14;101890.31;;;16.15;41.18
26563;BME280;14217;50.986;5.826;2023-01-27T08:36:18;101897.44;;;16.11;40.88
26563;BME280;14217;50.986;5.826;2023-01-27T08:41:23;101889.44;;;16.14;40.79
26563;BME280;14217;50.986;5.826;2023-01-27T08:46:25;101891.25;;;16.12;40.71
26563;BME280;14217;50.986;5.826;2023-01-27T08:51:27;101897.25;;;16.22;40.61
26563;BME280;14217;50.986;5.826;2023-01-27T08:56:29;101898.19;;;16.18;40.94
26563;BME280;14217;50.986;5.826;2023-01-27T09:01:31;101903.53;;;16.15;41.25
26563;BME280;14217;50.986;5.826;2023-01-27T09:06:34;101907.00;;;16.17;41.04
26563;BME280;14217;50.986;5.826;2023-01-27T09:11:39;101912.38;;;16.12;40.93
26563;BME280;14217;50.986;5.826;2023-01-27T09:16:41;101922.94;;;16.14;41.13
26563;BME280;14217;50.986;5.826;2023-01-27T09:21:43;101920.31;;;16.14;40.78
26563;BME280;14217;50.986;5.826;2023-01-27T09:26:45;101927.38;;;16.13;41.10
26563;BME280;14217;50.986;5.826;2023-01-27T09:31:47;101931.84;;;16.10;41.00
26563;BME280;14217;50.986;5.826;2023-01-27T09:36:57;101935.34;;;16.10;40.97
26563;BME280;14217;50.986;5.826;2023-01-27T09:42:11;101934.41;;;16.13;40.83
26563;BME280;14217;50.986;5.826;2023-01-27T09:53:23;101944.19;;;16.08;40.90
26563;BME280;14217;50.986;5.826;2023-01-27T10:20:16;101959.22;;;16.04;40.63
26563;BME280;14217;50.986;5.826;2023-01-27T10:25:07;101953.94;;;16.05;40.72
26563;BME280;14217;50.986;5.826;2023-01-27T10:30:19;101960.94;;;16.08;40.40
26563;BME280;14217;50.986;5.826;2023-01-27T10:35:32;101949.50;;;16.08;40.36
26563;BME280;14217;50.986;5.826;2023-01-27T10:51:46;101948.53;;;16.13;40.14
26563;BME280;14217;50.986;5.826;2023-01-27T10:57:01;101945.06;;;16.10;40.39
26563;BME280;14217;50.986;5.826;2023-01-27T11:02:09;101933.69;;;16.04;40.48
26563;BME280;14217;50.986;5.826;2023-01-27T11:07:16;101942.47;;;16.07;40.39
26563;BME280;14217;50.986;5.826;2023-01-27T11:12:28;101939.84;;;16.07;40.32
26563;BME280;14217;50.986;5.826;2023-01-27T11:23:18;101931.84;;;16.08;40.17
26563;BME280;14217;50.986;5.826;2023-01-27T11:28:54;101925.72;;;16.06;40.18
26563;BME280;14217;50.986;5.826;2023-01-27T11:34:10;101926.53;;;16.10;39.94
26563;BME280;14217;50.986;5.826;2023-01-27T11:39:17;101919.63;;;16.02;40.11
26563;BME280;14217;50.986;5.826;2023-01-27T11:44:29;101915.19;;;16.03;40.00
26563;BME280;14217;50.986;5.826;2023-01-27T11:49:40;101920.50;;;16.01;40.33
26563;BME280;14217;50.986;5.826;2023-01-27T11:55:06;101912.56;;;16.01;40.33
26563;BME280;14217;50.986;5.826;2023-01-27T12:00:23;101924.84;;;16.05;40.05
26563;BME280;14217;50.986;5.826;2023-01-27T12:05:30;101921.13;;;16.17;40.03
26563;BME280;14217;50.986;5.826;2023-01-27T12:10:39;101913.75;;;16.35;39.76
26563;BME280;14217;50.986;5.826;2023-01-27T12:16:13;101904.16;;;16.29;40.10
26563;BME280;14217;50.986;5.826;2023-01-27T12:21:16;101903.31;;;16.27;40.55
26563;BME280;14217;50.986;5.826;2023-01-27T12:26:30;101907.69;;;16.30;40.18
26563;BME280;14217;50.986;5.826;2023-01-27T12:31:44;101908.78;;;16.18;40.52
26563;BME280;14217;50.986;5.826;2023-01-27T12:36:47;101896.41;;;16.18;40.44
26563;BME280;14217;50.986;5.826;2023-01-27T12:41:51;101893.78;;;16.18;40.62
26563;BME280;14217;50.986;5.826;2023-01-27T12:47:01;101885.06;;;16.13;40.33
26563;BME280;14217;50.986;5.826;2023-01-27T12:52:17;101884.78;;;16.27;40.42
26563;BME280;14217;50.986;5.826;2023-01-27T12:57:20;101881.50;;;16.16;40.49
26563;BME280;14217;50.986;5.826;2023-01-27T13:02:30;101877.09;;;16.15;40.50
26563;BME280;14217;50.986;5.826;2023-01-27T13:07:47;101887.72;;;16.12;40.56
26563;BME280;14217;50.986;5.826;2023-01-27T13:12:58;101877.16;;;16.12;40.35
26563;BME280;14217;50.986;5.826;2023-01-27T13:18:12;101878.28;;;15.98;40.91
26563;BME280;14217;50.986;5.826;2023-01-27T13:23:25;101881.78;;;16.00;40.50
26563;BME280;14217;50.986;5.826;2023-01-27T13:29:19;101879.88;;;16.07;40.35
26563;BME280;14217;50.986;5.826;2023-01-27T13:33:59;101888.69;;;16.06;40.48
26563;BME280;14217;50.986;5.826;2023-01-27T13:44:28;101897.59;;;16.02;40.22
26563;BME280;14217;50.986;5.826;2023-01-27T13:49:40;101898.44;;;16.04;40.15
26563;BME280;14217;50.986;5.826;2023-01-27T13:54:43;101900.22;;;16.03;40.31
26563;BME280;14217;50.986;5.826;2023-01-27T14:10:39;101920.41;;;16.08;40.07
26563;BME280;14217;50.986;5.826;2023-01-27T14:16:00;101923.06;;;16.08;40.01
26563;BME280;14217;50.986;5.826;2023-01-27T14:21:31;101913.44;;;16.03;40.16
26563;BME280;14217;50.986;5.826;2023-01-27T14:27:00;101927.47;;;16.09;40.01
26563;BME280;14217;50.986;5.826;2023-01-27T14:37:29;101927.31;;;16.15;39.72
26563;BME280;14217;50.986;5.826;2023-01-27T14:42:47;101932.50;;;16.21;39.55
26563;BME280;14217;50.986;5.826;2023-01-27T14:58:36;101943.91;;;16.24;39.19
26563;BME280;14217;50.986;5.826;2023-01-27T15:09:16;101957.31;;;16.14;39.40
26563;BME280;14217;50.986;5.826;2023-01-27T15:25:20;101957.94;;;15.75;40.38
26563;BME280;14217;50.986;5.826;2023-01-27T15:30:33;101966.53;;;15.90;38.99
26563;BME280;14217;50.986;5.826;2023-01-27T15:35:39;101970.44;;;15.61;42.13
26563;BME280;14217;50.986;5.826;2023-01-27T15:45:56;101971.69;;;15.97;41.31
26563;BME280;14217;50.986;5.826;2023-01-27T15:51:04;101985.13;;;15.83;40.74
26563;BME280;14217;50.986;5.826;2023-01-27T15:56:07;101989.84;;;16.19;40.04
26563;BME280;14217;50.986;5.826;2023-01-27T16:01:23;101988.19;;;16.12;39.87
26563;BME280;14217;50.986;5.826;2023-01-27T16:06:26;102008.31;;;16.23;40.09
26563;BME280;14217;50.986;5.826;2023-01-27T16:16:31;102004.66;;;16.29;39.64
26563;BME280;14217;50.986;5.826;2023-01-27T16:21:45;102004.72;;;16.26;39.71
26563;BME280;14217;50.986;5.826;2023-01-27T16:26:59;102012.50;;;15.78;43.23
26563;BME280;14217;50.986;5.826;2023-01-27T16:32:12;102015.22;;;15.73;43.81
26563;BME280;14217;50.986;5.826;2023-01-27T16:37:21;102023.06;;;15.79;44.22
26563;BME280;14217;50.986;5.826;2023-01-27T16:42:33;102027.63;;;15.67;48.27
26563;BME280;14217;50.986;5.826;2023-01-27T16:47:42;102030.06;;;15.83;46.97
26563;BME280;14217;50.986;5.826;2023-01-27T16:52:46;102038.88;;;15.81;46.29
26563;BME280;14217;50.986;5.826;2023-01-27T16:57:49;102044.94;;;15.89;44.83
26563;BME280;14217;50.986;5.826;2023-01-27T17:02:53;102039.72;;;15.84;42.66
26563;BME280;14217;50.986;5.826;2023-01-27T17:08:15;102040.72;;;15.77;42.25
26563;BME280;14217;50.986;5.826;2023-01-27T17:18:34;102056.44;;;15.85;42.07
26563;BME280;14217;50.986;5.826;2023-01-27T17:23:59;102063.44;;;15.91;42.65
26563;BME280;14217;50.986;5.826;2023-01-27T17:29:02;102064.00;;;16.11;41.96
26563;BME280;14217;50.986;5.826;2023-01-27T17:34:05;102072.13;;;15.99;42.03
26563;BME280;14217;50.986;5.826;2023-01-27T17:39:23;102074.88;;;15.91;43.19
26563;BME280;14217;50.986;5.826;2023-01-27T17:44:26;102072.06;;;16.02;42.56
26563;BME280;14217;50.986;5.826;2023-01-27T17:49:29;102075.94;;;15.78;44.27
26563;BME280;14217;50.986;5.826;2023-01-27T17:54:33;102078.25;;;16.02;42.77
26563;BME280;14217;50.986;5.826;2023-01-27T17:59:41;102081.59;;;16.14;41.92
26563;BME280;14217;50.986;5.826;2023-01-27T18:04:44;102091.00;;;16.33;41.47
26563;BME280;14217;50.986;5.826;2023-01-27T18:09:53;102091.19;;;16.21;41.64
26563;BME280;14217;50.986;5.826;2023-01-27T18:14:56;102093.88;;;16.19;41.47
26563;BME280;14217;50.986;5.826;2023-01-27T18:19:58;102100.78;;;16.28;40.97
26563;BME280;14217;50.986;5.826;2023-01-27T18:25:01;102090.47;;;16.11;41.37
26563;BME280;14217;50.986;5.826;2023-01-27T18:30:11;102091.25;;;16.16;41.42
26563;BME280;14217;50.986;5.826;2023-01-27T18:35:25;102090.31;;;15.51;45.48
26563;BME280;14217;50.986;5.826;2023-01-27T18:40:33;102096.16;;;15.79;46.29
26563;BME280;14217;50.986;5.826;2023-01-27T18:45:36;102093.81;;;15.56;46.03
26563;BME280;14217;50.986;5.826;2023-01-27T18:50:40;102097.13;;;15.75;44.90
26563;BME280;14217;50.986;5.826;2023-01-27T18:55:42;102102.28;;;15.82;44.40
26563;BME280;14217;50.986;5.826;2023-01-27T19:00:50;102098.91;;;15.73;44.23
26563;BME280;14217;50.986;5.826;2023-01-27T19:05:53;102103.31;;;15.72;44.39
26563;BME280;14217;50.986;5.826;2023-01-27T19:10:55;102104.94;;;15.84;44.06
26563;BME280;14217;50.986;5.826;2023-01-27T19:15:58;102099.56;;;15.92;43.67
26563;BME280;14217;50.986;5.826;2023-01-27T19:21:00;102119.00;;;15.86;43.54
26563;BME280;14217;50.986;5.826;2023-01-27T19:26:03;102120.72;;;15.87;43.14
26563;BME280;14217;50.986;5.826;2023-01-27T19:31:11;102113.81;;;15.78;43.15
26563;BME280;14217;50.986;5.826;2023-01-27T19:41:21;102120.66;;;15.93;43.00
26563;BME280;14217;50.986;5.826;2023-01-27T19:46:23;102120.72;;;15.89;42.99
26563;BME280;14217;50.986;5.826;2023-01-27T19:51:25;102126.84;;;15.92;42.62
26563;BME280;14217;50.986;5.826;2023-01-27T19:56:29;102129.56;;;15.86;42.58
26563;BME280;14217;50.986;5.826;2023-01-27T20:01:32;102133.00;;;15.94;42.39
26563;BME280;14217;50.986;5.826;2023-01-27T20:06:34;102132.00;;;16.00;42.32
26563;BME280;14217;50.986;5.826;2023-01-27T20:11:41;102141.88;;;15.89;42.53
26563;BME280;14217;50.986;5.826;2023-01-27T20:16:44;102149.84;;;15.84;42.57
26563;BME280;14217;50.986;5.826;2023-01-27T20:21:46;102156.91;;;15.83;42.76
26563;BME280;14217;50.986;5.826;2023-01-27T20:26:48;102151.59;;;15.87;43.03
26563;BME280;14217;50.986;5.826;2023-01-27T20:31:50;102153.34;;;15.86;42.56
26563;BME280;14217;50.986;5.826;2023-01-27T20:36:53;102144.69;;;15.70;43.04
26563;BME280;14217;50.986;5.826;2023-01-27T20:41:55;102149.28;;;15.54;43.78
26563;BME280;14217;50.986;5.826;2023-01-27T20:46:57;102142.97;;;15.66;43.77
26563;BME280;14217;50.986;5.826;2023-01-27T20:51:59;102152.63;;;15.75;43.54
26563;BME280;14217;50.986;5.826;2023-01-27T20:57:01;102150.81;;;15.77;43.26
26563;BME280;14217;50.986;5.826;2023-01-27T21:02:03;102153.44;;;15.80;43.21
26563;BME280;14217;50.986;5.826;2023-01-27T21:07:05;102157.78;;;15.84;43.19
26563;BME280;14217;50.986;5.826;2023-01-27T21:12:08;102159.56;;;15.83;42.97
26563;BME280;14217;50.986;5.826;2023-01-27T21:17:10;102166.44;;;15.98;42.55
26563;BME280;14217;50.986;5.826;2023-01-27T21:22:12;102166.44;;;15.98;42.33
26563;BME280;14217;50.986;5.826;2023-01-27T21:27:14;102162.88;;;15.99;42.49
26563;BME280;14217;50.986;5.826;2023-01-27T21:32:16;102159.38;;;15.97;42.53
26563;BME280;14217;50.986;5.826;2023-01-27T21:37:18;102158.59;;;15.91;42.58
26563;BME280;14217;50.986;5.826;2023-01-27T21:42:20;102156.84;;;15.90;42.46
26563;BME280;14217;50.986;5.826;2023-01-27T21:47:41;102148.94;;;15.88;42.59
26563;BME280;14217;50.986;5.826;2023-01-27T21:52:45;102149.72;;;15.95;42.28
26563;BME280;14217;50.986;5.826;2023-01-27T21:57:48;102149.72;;;15.93;42.36
26563;BME280;14217;50.986;5.826;2023-01-27T22:02:58;102147.94;;;15.97;42.25
26563;BME280;14217;50.986;5.826;2023-01-27T22:08:01;102150.66;;;15.89;42.80
26563;BME280;14217;50.986;5.826;2023-01-27T22:13:03;102138.34;;;15.88;43.15
26563;BME280;14217;50.986;5.826;2023-01-27T22:18:05;102138.59;;;15.63;44.03
26563;BME280;14217;50.986;5.826;2023-01-27T22:23:07;102145.34;;;15.92;44.62
26563;BME280;14217;50.986;5.826;2023-01-27T22:28:09;102144.34;;;16.02;42.70
26563;BME280;14217;50.986;5.826;2023-01-27T22:33:11;102148.56;;;16.16;42.50
26563;BME280;14217;50.986;5.826;2023-01-27T22:38:14;102146.78;;;16.18;42.07
26563;BME280;14217;50.986;5.826;2023-01-27T22:43:16;102144.13;;;16.18;42.09
26563;BME280;14217;50.986;5.826;2023-01-27T22:48:18;102150.41;;;16.11;41.88
26563;BME280;14217;50.986;5.826;2023-01-27T22:53:20;102138.75;;;16.22;41.57
26563;BME280;14217;50.986;5.826;2023-01-27T22:58:22;102137.13;;;16.15;41.73
26563;BME280;14217;50.986;5.826;2023-01-27T23:03:24;102142.25;;;16.24;41.49
26563;BME280;14217;50.986;5.826;2023-01-27T23:08:26;102140.44;;;16.30;41.23
26563;BME280;14217;50.986;5.826;2023-01-27T23:13:29;102142.03;;;16.41;40.97
26563;BME280;14217;50.986;5.826;2023-01-27T23:18:31;102140.41;;;16.31;41.02
26563;BME280;14217;50.986;5.826;2023-01-27T23:23:34;102147.16;;;16.51;40.46
26563;BME280;14217;50.986;5.826;2023-01-27T23:28:37;102148.34;;;16.31;40.81
26563;BME280;14217;50.986;5.826;2023-01-27T23:33:40;102150.09;;;16.32;40.67
26563;BME280;14217;50.986;5.826;2023-01-27T23:38:42;102152.63;;;16.40;40.37
26563;BME280;14217;50.986;5.826;2023-01-27T23:43:50;102157.91;;;16.40;40.14
26563;BME280;14217;50.986;5.826;2023-01-27T23:48:53;102161.38;;;16.46;40.22
26563;BME280;14217;50.986;5.826;2023-01-27T23:53:56;102160.38;;;16.54;39.90
26563;BME280;14217;50.986;5.826;2023-01-27T23:58:58;102161.31;;;16.50;39.86
